Time;durP1;ratioP1;P1;durP2;ratioP2;P2;SDS_P1;SDS_P2;PMS_P1;PMS_P2;Temp;Humidity;BMP_temperature;BMP_pressure;BME280_temperature;BME280_humidity;BME280_pressure;Samples;Min_cycle;Max_cycle;Signal;HPM_P1;HPM_P2
2022/01/15 00:00:00;;;;;;;20.00;6.57;;;;;;;0.99;100.00;100756.81;4970745;28;20041;-78
2022/01/15 00:02:25;;;;;;;27.85;7.63;;;;;;;0.99;100.00;100767.06;4970389;28;20117;-78
2022/01/15 00:04:50;;;;;;;16.92;6.22;;;;;;;0.83;100.00;100742.97;4970506;28;20041;-78
2022/01/15 00:07:16;;;;;;;25.95;6.90;;;;;;;0.88;100.00;100748.13;4954237;28;20066;-78
2022/01/15 00:09:44;;;;;;;20.70;5.88;;;;;;;0.89;100.00;100762.72;4970485;28;20090;-78
2022/01/15 00:12:10;;;;;;;20.50;5.90;;;;;;;0.94;100.00;100782.44;4970413;28;20042;-78
2022/01/15 00:14:37;;;;;;;18.33;5.72;;;;;;;0.92;100.00;100791.78;4954364;28;20106;-79
2022/01/15 00:17:08;;;;;;;15.98;6.25;;;;;;;0.84;100.00;100777.16;4970508;28;20043;-78
2022/01/15 00:19:43;;;;;;;19.45;6.15;;;;;;;0.88;100.00;100772.06;4970548;28;20599;-78
2022/01/15 00:22:10;;;;;;;18.42;5.85;;;;;;;0.88;100.00;100786.63;4970315;28;20499;-78
2022/01/15 00:24:35;;;;;;;24.38;6.45;;;;;;;0.71;100.00;100764.19;4981589;28;20034;-78
2022/01/15 00:27:01;;;;;;;19.85;6.20;;;;;;;0.79;100.00;100778.81;4994504;28;20030;-78
2022/01/15 00:29:29;;;;;;;20.48;6.38;;;;;;;0.70;100.00;100765.06;5011447;28;20030;-79
2022/01/15 00:31:54;;;;;;;19.20;6.07;;;;;;;0.76;100.00;100774.53;4994299;28;20465;-78
2022/01/15 00:34:20;;;;;;;22.05;6.70;;;;;;;0.71;100.00;100774.47;5011491;28;20054;-78
2022/01/15 00:36:45;;;;;;;18.58;6.45;;;;;;;0.62;100.00;100758.97;5011735;28;20397;-78
2022/01/15 00:39:10;;;;;;;23.27;6.13;;;;;;;0.67;100.00;100779.53;4989401;28;20070;-78
2022/01/15 00:41:36;;;;;;;19.63;6.53;;;;;;;0.60;100.00;100767.50;4989829;28;20565;-78
2022/01/15 00:44:01;;;;;;;20.30;6.82;;;;;;;0.58;100.00;100775.16;4973138;28;20042;-78
2022/01/15 00:46:27;;;;;;;21.42;6.90;;;;;;;0.48;100.00;100771.63;4989528;28;20038;-78
2022/01/15 00:48:52;;;;;;;20.83;6.38;;;;;;;0.55;100.00;100779.38;4993449;28;20104;-78
2022/01/15 00:51:17;;;;;;;16.60;5.80;;;;;;;0.50;100.00;100776.78;5028866;28;20029;-78
2022/01/15 00:53:43;;;;;;;24.42;6.82;;;;;;;0.38;100.00;100763.81;5029865;28;20042;-78
2022/01/15 00:56:09;;;;;;;24.42;7.03;;;;;;;0.43;100.00;100777.56;5032788;28;20091;-78
2022/01/15 00:58:34;;;;;;;17.35;6.55;;;;;;;0.39;100.00;100778.34;5032216;28;20042;-78
2022/01/15 01:01:00;;;;;;;24.08;6.78;;;;;;;0.27;100.00;100757.69;5032770;28;20032;-78
2022/01/15 01:03:25;;;;;;;21.60;7.03;;;;;;;0.36;100.00;100770.63;5032297;28;20489;-78
2022/01/15 01:05:51;;;;;;;19.55;7.10;;;;;;;0.32;100.00;100784.25;5015902;28;20030;-78
2022/01/15 01:08:16;;;;;;;22.60;6.90;;;;;;;0.30;100.00;100791.06;5015489;28;20465;-78
2022/01/15 01:11:03;;;;;;;19.27;6.25;;;;;;;0.29;100.00;100791.88;5027592;28;20301;-78
2022/01/15 01:24:26;;;;;;;28.33;8.80;;;;;;;0.10;100.00;100765.16;5034191;28;20091;-78
2022/01/15 01:27:06;;;;;;;30.90;8.77;;;;;;;0.17;100.00;100785.75;5033431;28;20107;-78
2022/01/15 01:34:25;;;;;;;24.52;8.43;;;;;;;0.06;100.00;100789.00;5034138;28;20224;-78
2022/01/15 01:39:51;;;;;;;25.65;8.32;;;;;;;0.02;100.00;100779.56;5034025;28;20043;-78
2022/01/15 01:45:08;;;;;;;23.55;7.75;;;;;;;-0.03;100.00;100787.19;5034299;28;20114;-78
2022/01/15 01:47:40;;;;;;;27.08;8.10;;;;;;;-0.06;100.00;100792.25;5034045;28;20381;-78
2022/01/15 01:50:18;;;;;;;22.70;6.95;;;;;;;-0.13;100.00;100778.47;5021798;28;20056;-78
2022/01/15 01:52:46;;;;;;;27.83;8.30;;;;;;;-0.11;100.00;100776.81;5014352;28;20075;-78
2022/01/15 01:55:11;;;;;;;23.92;7.65;;;;;;;-0.21;100.00;100759.59;5014220;28;20041;-78
2022/01/15 01:57:37;;;;;;;19.73;7.57;;;;;;;-0.23;100.00;100760.41;5013831;28;20033;-78
2022/01/15 02:00:06;;;;;;;22.05;7.18;;;;;;;-0.14;100.00;100783.59;5014027;28;20649;-78
2022/01/15 02:02:32;;;;;;;23.48;7.78;;;;;;;-0.15;100.00;100777.59;4996294;28;20421;-78
2022/01/15 02:04:58;;;;;;;24.55;7.57;;;;;;;-0.20;100.00;100776.69;5013516;28;20038;-78
2022/01/15 02:07:27;;;;;;;33.08;8.80;;;;;;;-0.24;100.00;100774.91;5013756;28;20386;-78
2022/01/15 02:09:55;;;;;;;29.27;9.43;;;;;;;-0.24;100.00;100777.47;5013824;28;20125;-78
2022/01/15 02:12:20;;;;;;;29.15;8.52;;;;;;;-0.29;100.00;100776.56;4995921;28;20033;-78
2022/01/15 02:14:46;;;;;;;23.77;7.75;;;;;;;-0.26;100.00;100781.69;4996401;28;20117;-78
2022/01/15 02:17:16;;;;;;;27.10;8.05;;;;;;;-0.34;100.00;100779.03;4996257;28;20113;-78
2022/01/15 02:19:58;;;;;;;26.38;7.85;;;;;;;-0.32;100.00;100787.59;5013852;28;20034;-78
2022/01/15 02:25:08;;;;;;;27.50;8.55;;;;;;;-0.37;100.00;100790.91;5013863;28;20136;-78
2022/01/15 02:27:33;;;;;;;26.42;8.68;;;;;;;-0.36;100.00;100784.97;5013538;28;20049;-78
2022/01/15 02:30:03;;;;;;;29.63;8.40;;;;;;;-0.41;100.00;100776.34;5013506;28;20488;-78
2022/01/15 02:32:32;;;;;;;27.50;8.07;;;;;;;-0.50;100.00;100766.84;5013229;28;20100;-78
2022/01/15 02:34:58;;;;;;;32.95;8.82;;;;;;;-0.42;100.00;100780.63;5013458;28;20030;-78
2022/01/15 02:37:23;;;;;;;34.42;8.93;;;;;;;-0.50;100.00;100766.84;5013406;28;20120;-78
2022/01/15 02:39:48;;;;;;;29.15;9.43;;;;;;;-0.43;100.00;100781.44;5013529;28;20430;-78
2022/01/15 02:42:14;;;;;;;29.23;9.73;;;;;;;-0.43;100.00;100783.13;4995778;28;20021;-78
2022/01/15 02:44:43;;;;;;;29.70;9.23;;;;;;;-0.44;100.00;100792.50;5013375;28;20030;-78
2022/01/15 02:49:34;;;;;;;28.25;8.63;;;;;;;-0.59;100.00;100772.66;5012610;28;20108;-78
2022/01/15 02:51:59;;;;;;;25.95;9.00;;;;;;;-0.52;100.00;100786.41;4995482;28;20022;-78
2022/01/15 02:54:24;;;;;;;29.13;8.70;;;;;;;-0.55;100.00;100783.78;5013431;28;20462;-78
2022/01/15 02:56:50;;;;;;;24.30;8.95;;;;;;;-0.58;100.00;100787.19;5013387;28;20025;-78
2022/01/15 02:59:21;;;;;;;28.45;9.95;;;;;;;-0.69;100.00;100762.22;5013133;28;20040;-78
2022/01/15 03:01:48;;;;;;;;;;;;;;;-0.57;100.00;100799.13;5013493;28;20032;-78
2022/01/15 03:04:14;;;;;;;30.58;9.82;;;;;;;-0.72;100.00;100778.38;5012943;28;19914;-78
2022/01/15 03:06:39;;;;;;;28.67;9.38;;;;;;;-0.81;100.00;100768.00;4995206;28;20045;-78
2022/01/15 03:09:05;;;;;;;25.67;9.02;;;;;;;-0.74;100.00;100794.56;5012939;28;20036;-78
2022/01/15 03:11:30;;;;;;;29.00;9.48;;;;;;;-0.80;100.00;100779.94;5012755;28;20034;-78
2022/01/15 03:13:56;;;;;;;20.95;8.63;;;;;;;-0.80;100.00;100790.16;4995176;28;20022;-78
2022/01/15 03:16:22;;;;;;;23.02;8.02;;;;;;;-0.83;100.00;100788.44;5011786;28;20034;-78
2022/01/15 03:18:48;;;;;;;40.80;11.75;;;;;;;-0.89;100.00;100780.66;5012658;28;20036;-78
2022/01/15 03:21:14;;;;;;;24.60;8.25;;;;;;;-0.82;100.00;100790.16;5012534;28;20053;-78
2022/01/15 03:23:40;;;;;;;36.10;10.13;;;;;;;-0.79;100.00;100785.09;5012525;28;20469;-78
2022/01/15 03:26:12;;;;;;;29.83;8.80;;;;;;;-0.71;100.00;100785.25;5012516;28;20461;-78
2022/01/15 03:28:37;;;;;;;24.35;7.03;;;;;;;-0.82;100.00;100761.16;4994497;28;20049;-78
2022/01/15 03:31:03;;;;;;;19.98;7.05;;;;;;;-0.67;100.00;100776.78;5012450;28;20030;-78
2022/01/15 03:33:28;;;;;;;17.08;7.03;;;;;;;-0.62;100.00;100781.97;5010816;28;20037;-78
2022/01/15 03:35:54;;;;;;;27.33;7.03;;;;;;;-0.60;100.00;100780.28;4995059;28;20038;-78
2022/01/15 03:38:19;;;;;;;20.42;7.45;;;;;;;-0.60;100.00;100777.72;5012621;28;20505;-78
2022/01/15 03:40:45;;;;;;;23.88;8.18;;;;;;;-0.61;100.00;100776.03;5012480;28;20045;-78
2022/01/15 03:43:10;;;;;;;25.17;8.23;;;;;;;-0.61;100.00;100774.31;4994723;28;20458;-78
2022/01/15 03:45:36;;;;;;;24.50;8.68;;;;;;;-0.69;100.00;100768.22;5010795;28;20493;-78
2022/01/15 03:48:01;;;;;;;21.42;8.93;;;;;;;-0.63;100.00;100777.69;5012330;28;20037;-78
2022/01/15 03:50:27;;;;;;;23.35;8.57;;;;;;;-0.80;100.00;100747.59;4980465;28;20069;-78
2022/01/15 03:52:54;;;;;;;23.23;9.02;;;;;;;-0.72;100.00;100764.72;4990203;28;20117;-78
2022/01/15 03:55:20;;;;;;;21.13;9.05;;;;;;;-0.72;100.00;100769.84;4990161;28;20450;-78
2022/01/15 03:57:46;;;;;;;23.38;8.40;;;;;;;-0.78;100.00;100757.81;4989851;28;20037;-78
2022/01/15 04:00:14;;;;;;;21.95;8.20;;;;;;;-0.69;100.00;100777.59;4990126;28;20043;-78
2022/01/15 04:02:41;;;;;;;24.17;8.95;;;;;;;-0.74;100.00;100767.28;4989817;28;20041;-78
2022/01/15 04:05:08;;;;;;;25.17;8.13;;;;;;;-0.76;100.00;100763.81;4990070;28;20525;-78
2022/01/15 04:07:33;;;;;;;21.05;7.70;;;;;;;-0.74;100.00;100774.94;4973519;28;20038;-78
2022/01/15 04:09:59;;;;;;;20.42;8.23;;;;;;;-0.73;100.00;100780.94;4989830;28;20043;-78
2022/01/15 04:12:24;;;;;;;23.35;8.30;;;;;;;-0.77;100.00;100778.31;4989859;28;20046;-78
2022/01/15 04:14:49;;;;;;;24.25;8.02;;;;;;;-0.81;100.00;100773.97;4990121;28;20042;-78
2022/01/15 04:17:15;;;;;;;25.17;8.65;;;;;;;-0.76;100.00;100772.38;4990156;28;20489;-78
2022/01/15 04:19:40;;;;;;;20.00;8.25;;;;;;;-0.72;100.00;100780.09;4989848;28;20096;-78
2022/01/15 04:22:06;;;;;;;21.95;8.32;;;;;;;-0.71;100.00;100787.81;5020543;28;20120;-78
2022/01/15 04:24:31;;;;;;;22.15;8.38;;;;;;;-0.76;100.00;100790.28;5029361;28;20049;-78
2022/01/15 04:26:57;;;;;;;21.38;8.65;;;;;;;-0.78;100.00;100786.81;5029536;28;20100;-78
2022/01/15 04:29:22;;;;;;;23.98;9.07;;;;;;;-0.80;100.00;100791.06;5015652;28;20072;-78
2022/01/15 04:31:48;;;;;;;21.42;8.30;;;;;;;-0.78;100.00;100797.06;5033313;28;20033;-78
2022/01/15 04:34:25;;;;;;;17.00;7.72;;;;;;;-0.74;100.00;100794.56;5016329;28;20029;-78
2022/01/15 04:36:53;;;;;;;21.42;8.73;;;;;;;-0.78;100.00;100797.06;5032968;28;20057;-78
2022/01/15 04:39:19;;;;;;;19.73;8.52;;;;;;;-0.71;100.00;100807.41;5032970;28;20099;-78
2022/01/15 04:41:45;;;;;;;22.50;9.73;;;;;;;-0.66;100.00;100803.22;5034681;28;20509;-78
2022/01/15 04:44:11;;;;;;;20.55;8.88;;;;;;;-0.63;100.00;100806.72;5035589;28;20037;-78
2022/01/15 04:46:37;;;;;;;23.45;8.70;;;;;;;-0.58;100.00;100805.09;5035071;28;20026;-78
2022/01/15 04:49:04;;;;;;;27.45;10.23;;;;;;;-0.54;100.00;100811.13;5031342;28;20555;-78
2022/01/15 04:51:29;;;;;;;26.10;9.80;;;;;;;-0.63;100.00;100787.91;5015443;28;20017;-78
2022/01/15 04:53:55;;;;;;;23.92;9.20;;;;;;;-0.51;100.00;100808.59;5015223;28;20049;-78
2022/01/15 04:56:20;;;;;;;21.30;10.40;;;;;;;-0.50;100.00;100823.13;5014051;28;20025;-78
2022/01/15 04:58:46;;;;;;;26.05;10.48;;;;;;;-0.51;100.00;100809.47;5015006;28;20132;-78
2022/01/15 05:01:11;;;;;;;23.38;11.68;;;;;;;-0.58;100.00;100791.44;4997484;28;20120;-78
2022/01/15 05:03:37;;;;;;;26.70;12.10;;;;;;;-0.48;100.00;100812.91;4997486;28;20033;-78
2022/01/15 05:06:02;;;;;;;25.92;11.85;;;;;;;-0.55;100.00;100805.16;4997558;28;20686;-78
2022/01/15 05:08:28;;;;;;;22.10;10.18;;;;;;;-0.53;100.00;100811.13;5014806;28;20076;-78
2022/01/15 05:10:57;;;;;;;22.15;10.73;;;;;;;-0.48;100.00;100820.59;5015262;28;20094;-78
2022/01/15 05:13:27;;;;;;;26.35;9.98;;;;;;;-0.52;100.00;100806.88;4997630;28;20470;-78
2022/01/15 05:15:52;;;;;;;24.37;10.47;;;;;;;-0.42;100.00;100811.34;5014887;28;20029;-78
2022/01/15 05:18:18;;;;;;;19.45;9.48;;;;;;;-0.42;100.00;100810.44;4997455;28;20500;-78
2022/01/15 05:20:45;;;;;;;20.35;7.90;;;;;;;-0.42;100.00;100810.44;5014724;28;20030;-78
2022/01/15 05:23:10;;;;;;;23.50;10.07;;;;;;;-0.40;100.00;100811.34;5014967;28;20489;-78
2022/01/15 05:25:36;;;;;;;21.15;9.77;;;;;;;-0.41;100.00;100812.19;4997031;28;20053;-78
2022/01/15 05:28:01;;;;;;;28.88;10.60;;;;;;;-0.45;100.00;100792.50;5014657;28;20022;-78
2022/01/15 05:30:30;;;;;;;22.83;11.57;;;;;;;-0.43;100.00;100799.34;5014210;28;20040;-78
2022/01/15 05:32:55;;;;;;;21.67;11.32;;;;;;;-0.30;100.00;100805.53;5013451;28;20138;-78
2022/01/15 05:35:25;;;;;;;23.52;10.65;;;;;;;-0.34;100.00;100796.06;4997047;28;20501;-78
2022/01/15 05:37:51;;;;;;;22.52;11.88;;;;;;;-0.28;100.00;100807.28;4996775;28;20026;-78
2022/01/15 05:40:17;;;;;;;24.13;11.43;;;;;;;-0.29;100.00;100794.47;5013706;28;20441;-78
2022/01/15 05:42:42;;;;;;;23.58;10.43;;;;;;;-0.16;100.00;100809.19;4996519;28;20129;-78
2022/01/15 05:45:08;;;;;;;22.33;11.25;;;;;;;-0.29;100.00;100781.66;5014331;28;20029;-78
2022/01/15 05:47:34;;;;;;;28.38;13.05;;;;;;;-0.16;100.00;100805.75;5014002;28;20056;-78
2022/01/15 05:49:59;;;;;;;24.10;12.88;;;;;;;-0.15;100.00;100797.25;5014273;28;20479;-78
2022/01/15 05:52:24;;;;;;;26.60;13.07;;;;;;;-0.07;100.00;100806.75;5014331;28;20077;-78
2022/01/15 05:54:50;;;;;;;23.35;13.73;;;;;;;-0.06;100.00;100813.59;5013926;28;20068;-78
2022/01/15 05:57:16;;;;;;;24.17;13.80;;;;;;;-0.19;100.00;100785.22;5014065;28;20053;-78
2022/01/15 05:59:41;;;;;;;30.58;12.63;;;;;;;-0.15;100.00;100782.72;5014359;28;20092;-78
2022/01/15 06:02:07;;;;;;;24.55;11.35;;;;;;;-0.06;100.00;100799.94;4996541;28;20060;-78
2022/01/15 06:04:32;;;;;;;23.88;11.48;;;;;;;-0.12;100.00;100797.28;4996298;28;20096;-78
2022/01/15 06:06:57;;;;;;;30.95;11.45;;;;;;;-0.08;100.00;100801.63;5012757;28;20030;-78
2022/01/15 06:09:23;;;;;;;26.55;11.77;;;;;;;-0.01;100.00;100824.75;5012561;28;20037;-78
2022/01/15 06:11:48;;;;;;;38.20;16.13;;;;;;;-0.11;100.00;100804.97;5013697;28;20026;-78
2022/01/15 06:14:14;;;;;;;29.80;14.13;;;;;;;-0.04;100.00;100819.63;4996100;28;20121;-78
2022/01/15 06:16:39;;;;;;;24.73;10.75;;;;;;;-0.07;100.00;100824.69;5014043;28;20112;-78
2022/01/15 06:19:04;;;;;;;23.88;11.32;;;;;;;-0.08;100.00;100824.66;4996289;28;20037;-78
2022/01/15 06:21:30;;;;;;;21.83;10.43;;;;;;;-0.20;100.00;100799.72;5013429;28;20050;-78
2022/01/15 06:23:55;;;;;;;18.60;10.23;;;;;;;-0.13;100.00;100822.00;5013519;28;20026;-78
2022/01/15 06:26:20;;;;;;;22.70;10.05;;;;;;;-0.19;100.00;100814.25;5013601;28;20584;-78
2022/01/15 06:28:46;;;;;;;26.58;11.32;;;;;;;-0.30;100.00;100805.53;5013010;28;20040;-78
2022/01/15 06:31:12;;;;;;;23.83;11.05;;;;;;;-0.31;100.00;100816.59;5012417;28;20026;-78
2022/01/15 06:33:37;;;;;;;32.42;13.93;;;;;;;-0.31;100.00;100821.72;5013412;28;20164;-78
2022/01/15 06:36:03;;;;;;;26.77;12.30;;;;;;;-0.42;100.00;100808.78;5012326;28;20117;-78
2022/01/15 06:38:28;;;;;;;26.13;13.55;;;;;;;-0.40;100.00;100822.44;5013495;28;20057;-78
2022/01/15 06:40:54;;;;;;;26.92;13.40;;;;;;;-0.54;100.00;100806.00;5013176;28;20037;-78
2022/01/15 06:43:19;;;;;;;28.13;13.10;;;;;;;-0.49;100.00;100821.44;5013274;28;20438;-76
2022/01/15 06:45:45;;;;;;;32.25;13.35;;;;;;;-0.50;100.00;100820.56;5013065;28;20083;-78
2022/01/15 06:48:10;;;;;;;24.35;12.45;;;;;;;-0.56;100.00;100818.75;4995872;28;20029;-76
2022/01/15 06:50:37;;;;;;;29.02;12.65;;;;;;;-0.58;100.00;100820.44;5012628;28;20045;-75
2022/01/15 06:53:03;;;;;;;30.40;14.35;;;;;;;-0.53;100.00;100835.88;5012696;28;20052;-76
2022/01/15 06:55:28;;;;;;;27.70;13.40;;;;;;;-0.66;100.00;100806.66;5013173;28;20100;-76
2022/01/15 06:57:54;;;;;;;30.33;13.85;;;;;;;-0.48;100.00;100830.81;4995043;28;20026;-77
2022/01/15 07:00:19;;;;;;;27.27;13.30;;;;;;;-0.52;100.00;100838.44;5013169;28;20037;-78
2022/01/15 07:02:45;;;;;;;32.35;13.77;;;;;;;-0.47;100.00;100832.53;4995240;28;20481;-77
2022/01/15 07:05:11;;;;;;;29.60;12.80;;;;;;;-0.59;100.00;100818.72;5013076;28;20021;-75
2022/01/15 07:07:43;;;;;;;31.40;12.82;;;;;;;-0.35;100.00;100850.66;5011528;28;20022;-76
2022/01/15 07:10:09;;;;;;;37.67;16.05;;;;;;;-0.37;100.00;100835.28;5012675;28;20080;-77
2022/01/15 07:12:34;;;;;;;43.08;17.55;;;;;;;-0.17;100.00;100848.44;5012800;28;20033;-75
2022/01/15 07:15:00;;;;;;;30.75;15.02;;;;;;;-0.11;100.00;100847.66;5012872;28;20026;-78
2022/01/15 07:17:27;;;;;;;37.90;14.23;;;;;;;-0.05;100.00;100840.91;5013054;28;20025;-77
2022/01/15 07:19:52;;;;;;;29.27;12.23;;;;;;;0.07;100.00;100850.50;5012791;28;20046;-79
2022/01/15 07:22:18;;;;;;;28.98;11.98;;;;;;;0.14;100.00;100841.22;5012520;28;20413;-79
2022/01/15 07:24:43;;;;;;;26.35;11.25;;;;;;;0.21;100.00;100841.34;4994539;28;20025;-79
2022/01/15 07:27:09;;;;;;;28.27;11.98;;;;;;;0.27;100.00;100840.56;4994770;28;20022;-79
2022/01/15 07:29:37;;;;;;;25.27;12.60;;;;;;;0.19;100.00;100819.94;5012203;28;20469;-79
2022/01/15 07:32:03;;;;;;;23.55;11.93;;;;;;;0.41;100.00;100851.84;5012614;28;20034;-79
2022/01/15 07:34:28;;;;;;;27.52;11.68;;;;;;;0.37;100.00;100847.50;5012541;28;20120;-79
2022/01/15 07:36:57;;;;;;;34.58;12.25;;;;;;;0.49;100.00;100859.66;5012183;28;20558;-79
2022/01/15 07:39:23;;;;;;;29.92;10.80;;;;;;;0.59;100.00;100860.63;5012301;28;20038;-79
2022/01/15 07:41:49;;;;;;;28.80;12.40;;;;;;;0.64;100.00;100869.25;5012379;28;20025;-79
2022/01/15 07:44:14;;;;;;;31.50;12.88;;;;;;;0.72;100.00;100865.94;5012664;28;20370;-79
2022/01/15 07:46:39;;;;;;;26.20;12.40;;;;;;;0.66;100.00;100845.34;4994669;28;20397;-79
2022/01/15 07:49:05;;;;;;;31.60;15.32;;;;;;;0.74;100.00;100863.41;4998916;28;20053;-78
2022/01/15 07:51:30;;;;;;;28.17;14.13;;;;;;;0.74;100.00;100850.56;5032181;28;20029;-79
2022/01/15 07:53:56;;;;;;;33.78;14.18;;;;;;;0.86;100.00;100875.53;5030947;28;20044;-78
2022/01/15 07:56:21;;;;;;;32.97;14.55;;;;;;;0.94;100.00;100879.91;5031883;28;20022;-79
2022/01/15 07:58:47;;;;;;;32.38;16.75;;;;;;;0.92;100.00;100884.13;5031870;28;20053;-78
2022/01/15 08:01:13;;;;;;;35.45;16.65;;;;;;;0.87;100.00;100865.28;5032051;28;20506;-79
2022/01/15 08:03:39;;;;;;;31.85;14.57;;;;;;;0.93;100.00;100861.94;5030015;28;20026;-78
2022/01/15 08:06:06;;;;;;;35.45;16.20;;;;;;;0.95;100.00;100857.66;5031867;28;20485;-79
2022/01/15 08:08:32;;;;;;;37.72;17.35;;;;;;;1.12;100.00;100876.69;5031757;28;20473;-79
2022/01/15 08:10:57;;;;;;;36.97;18.02;;;;;;;1.20;100.00;100869.06;5031832;28;20022;-79
2022/01/15 08:13:23;;;;;;;35.20;17.75;;;;;;;1.32;100.00;100866.66;5031903;28;20408;-79
2022/01/15 08:15:50;;;;;;;35.67;17.30;;;;;;;1.49;100.00;100874.50;5031605;28;20026;-79
2022/01/15 08:18:15;;;;;;;35.50;17.77;;;;;;;1.54;100.00;100869.44;5030313;28;20692;-81
2022/01/15 08:20:41;;;;;;;29.17;15.02;;;;;;;1.57;100.00;100880.59;5030196;28;20036;-82
2022/01/15 08:23:06;;;;;;;32.65;13.82;;;;;;;1.62;100.00;100885.78;5031596;28;20087;-82
2022/01/15 08:25:32;;;;;;;30.42;13.75;;;;;;;1.61;100.00;100878.91;5031592;28;20457;-83
2022/01/15 08:27:57;;;;;;;27.90;12.90;;;;;;;1.66;100.00;100875.53;5030286;28;20038;-85
2022/01/15 08:30:23;;;;;;;36.22;13.43;;;;;;;1.85;100.00;100891.09;5030159;28;20052;-82
2022/01/15 08:32:49;;;;;;;30.25;15.48;;;;;;;1.88;100.00;100892.00;5030166;28;20030;-85
2022/01/15 08:35:14;;;;;;;22.80;12.93;;;;;;;2.06;100.00;100890.41;5030314;28;20033;-80
2022/01/15 08:37:40;;;;;;;23.13;11.52;;;;;;;2.05;100.00;100901.56;5031172;28;20036;-84
2022/01/15 08:40:09;;;;;;;29.65;12.45;;;;;;;2.19;100.00;100902.50;5009227;28;20042;-84
2022/01/15 08:42:36;;;;;;;27.23;12.15;;;;;;;2.23;100.00;100897.44;4992864;28;20042;-82
2022/01/15 08:45:04;;;;;;;29.30;12.73;;;;;;;2.38;100.00;100886.38;4992611;28;20207;-81
2022/01/15 08:47:30;;;;;;;28.73;15.20;;;;;;;2.38;100.00;100883.81;4992821;28;20437;-81
2022/01/15 08:49:55;;;;;;;42.50;18.60;;;;;;;2.45;100.00;100883.00;4992330;28;20054;-82
2022/01/15 08:52:21;;;;;;;44.97;22.17;;;;;;;2.59;100.00;100893.38;4992697;28;20056;-80
2022/01/15 08:54:46;;;;;;;49.78;25.27;;;;;;;2.67;100.00;100886.56;5009194;28;20040;-80
2022/01/15 08:57:12;;;;;;;50.55;22.63;;;;;;;2.66;100.00;100879.69;5009226;28;20037;-80
2022/01/15 08:59:38;;;;;;;43.70;21.42;;;;;;;2.69;100.00;100891.69;5009192;28;20069;-80
2022/01/15 09:02:04;;;;;;;43.60;22.08;;;;;;;2.63;100.00;100891.69;5009081;28;20036;-81
2022/01/15 09:04:29;;;;;;;34.30;17.25;;;;;;;2.60;100.00;100894.22;4992856;28;20042;-83
2022/01/15 09:06:55;;;;;;;36.13;17.15;;;;;;;2.65;100.00;100913.09;4994708;28;20030;-80
2022/01/15 09:09:20;;;;;;;41.35;21.60;;;;;;;2.50;100.00;100891.59;5011062;28;20549;-80
2022/01/15 09:11:46;;;;;;;45.55;20.38;;;;;;;2.52;100.00;100904.47;5008706;28;20045;-79
2022/01/15 09:14:12;;;;;;;37.33;16.85;;;;;;;2.54;100.00;100910.50;5008946;28;20041;-79
2022/01/15 09:16:38;;;;;;;35.70;15.30;;;;;;;2.56;100.00;100910.50;4998827;28;20029;-81
2022/01/15 09:19:04;;;;;;;30.63;12.80;;;;;;;2.48;100.00;100893.28;5034475;28;20033;-80
2022/01/15 09:21:30;;;;;;;34.15;13.73;;;;;;;2.54;100.00;100902.78;5034597;28;20080;-80
2022/01/15 09:23:56;;;;;;;34.70;14.20;;;;;;;2.63;100.00;100915.69;5033439;28;20030;-88
2022/01/15 09:26:25;;;;;;;36.08;14.90;;;;;;;2.76;100.00;100921.75;5033813;28;20037;-88
2022/01/15 09:31:36;;;;;;;33.97;14.98;;;;;;;2.86;100.00;100918.38;5035549;28;20087;-88
2022/01/15 09:34:02;;;;;;;25.33;13.32;;;;;;;2.93;100.00;100933.00;5033623;28;20033;-88
2022/01/15 09:36:27;;;;;;;37.63;15.23;;;;;;;2.93;100.00;100914.97;5033845;28;20022;-88
2022/01/15 09:38:53;;;;;;;40.63;16.35;;;;;;;3.00;100.00;100909.03;5033695;28;20056;-88
2022/01/15 09:41:19;;;;;;;38.28;16.17;;;;;;;3.09;100.00;100903.06;5033718;28;20562;-88
2022/01/15 09:43:45;;;;;;;33.08;14.30;;;;;;;3.16;100.00;100909.94;5034738;28;20392;-87
2022/01/15 09:46:11;;;;;;;31.63;13.13;;;;;;;3.18;100.00;100905.66;5034743;28;20033;-87
2022/01/15 09:48:38;;;;;;;33.08;13.90;;;;;;;3.13;100.00;100902.22;5033036;28;20064;-87
2022/01/15 09:51:04;;;;;;;36.65;15.73;;;;;;;3.23;100.00;100898.81;5033289;28;20041;-88
2022/01/15 09:53:33;;;;;;;35.40;14.75;;;;;;;3.33;100.00;100909.13;5033642;28;20132;-88
2022/01/15 09:55:58;;;;;;;33.88;15.65;;;;;;;3.13;100.00;100896.22;5034571;28;20032;-87
2022/01/15 09:58:24;;;;;;;31.73;14.93;;;;;;;3.21;100.00;100902.25;5033659;28;20385;-88
2022/01/15 10:00:49;;;;;;;33.50;16.20;;;;;;;3.10;100.00;100899.63;5033763;28;20026;-88
2022/01/15 10:03:15;;;;;;;37.88;16.33;;;;;;;3.12;100.00;100891.88;5033427;28;20029;-89
2022/01/15 10:05:41;;;;;;;27.98;14.10;;;;;;;3.23;100.00;100909.09;5033428;28;20124;-88
2022/01/15 10:08:10;;;;;;;34.90;16.33;;;;;;;3.25;100.00;100909.97;5032985;28;20079;-89
2022/01/15 10:10:38;;;;;;;36.63;17.80;;;;;;;3.41;100.00;100912.59;5033037;28;20029;-88
2022/01/15 10:13:30;;;;;;;37.22;16.75;;;;;;;3.49;100.00;100923.78;5033098;28;20037;-88
2022/01/15 10:15:55;;;;;;;39.95;17.15;;;;;;;3.44;100.00;100922.91;4975856;28;20038;-88
2022/01/15 10:18:29;;;;;;;32.88;13.85;;;;;;;3.44;100.00;100926.34;4992267;28;20433;-89
2022/01/15 10:21:10;;;;;;;40.90;18.45;;;;;;;3.37;100.00;100931.47;4976168;28;20525;-89
2022/01/15 10:23:45;;;;;;;41.00;18.87;;;;;;;3.29;100.00;100912.53;4992630;28;20445;-88
2022/01/15 10:26:13;;;;;;;33.85;15.93;;;;;;;3.24;100.00;100916.00;4992202;28;20335;-88
2022/01/15 10:28:54;;;;;;;33.30;14.90;;;;;;;3.19;100.00;100915.09;4992034;28;20097;-88
2022/01/15 10:31:25;;;;;;;25.85;11.77;;;;;;;3.20;100.00;100932.28;4992182;28;20027;-88
2022/01/15 10:33:51;;;;;;;27.83;12.65;;;;;;;3.16;100.00;100930.56;4991907;28;20047;-88
2022/01/15 10:36:30;;;;;;;33.40;15.18;;;;;;;3.17;100.00;100918.53;4992169;28;20022;-89
2022/01/15 10:39:19;;;;;;;33.92;15.38;;;;;;;3.20;100.00;100926.25;4976002;28;20035;-90
2022/01/15 10:41:46;;;;;;;29.85;13.48;;;;;;;3.08;100.00;100905.63;4992152;28;20476;-89
2022/01/15 10:44:35;;;;;;;29.42;13.93;;;;;;;3.22;100.00;100907.38;4972377;28;20544;-87
2022/01/15 10:47:12;;;;;;;37.35;14.98;;;;;;;3.20;100.00;100909.13;4971814;28;20035;-88
2022/01/15 10:49:40;;;;;;;29.65;13.35;;;;;;;3.25;100.00;100914.28;4971561;28;20102;-88
2022/01/15 10:52:18;;;;;;;26.80;11.38;;;;;;;3.15;100.00;100909.94;4981698;28;20069;-89
2022/01/15 10:55:07;;;;;;;35.42;13.70;;;;;;;3.12;100.00;100904.75;5011368;28;20130;-88
2022/01/15 10:57:39;;;;;;;32.03;13.45;;;;;;;3.17;100.00;100910.81;5008584;28;20574;-88
2022/01/15 11:00:08;;;;;;;24.33;11.27;;;;;;;3.17;100.00;100903.09;5012471;28;20038;-92
2022/01/15 11:02:34;;;;;;;28.02;13.15;;;;;;;3.21;100.00;100900.53;4996806;28;20116;-91
2022/01/15 11:05:03;;;;;;;34.45;14.93;;;;;;;3.37;100.00;100911.75;5030669;28;20591;-92
2022/01/15 11:07:36;;;;;;;38.25;15.48;;;;;;;3.30;100.00;100901.41;5017393;28;20540;-92
2022/01/15 11:10:04;;;;;;;36.45;14.05;;;;;;;3.30;100.00;100899.69;5016443;28;20038;-93
2022/01/15 11:12:30;;;;;;;26.58;12.35;;;;;;;3.42;100.00;100909.19;5033265;28;20458;-93
2022/01/15 11:14:56;;;;;;;47.90;22.80;;;;;;;3.50;100.00;100912.63;5028452;28;20592;-94
2022/01/15 11:17:22;;;;;;;32.58;16.50;;;;;;;3.50;100.00;100902.34;5037333;28;20220;-94
2022/01/15 11:19:52;;;;;;;32.67;13.50;;;;;;;3.59;100.00;100906.66;5054231;28;20087;-94
2022/01/15 11:22:23;;;;;;;32.35;12.82;;;;;;;3.57;100.00;100906.63;5052859;28;20033;-93
2022/01/15 11:24:50;;;;;;;31.48;13.93;;;;;;;3.61;100.00;100905.78;5036076;28;20033;-94
2022/01/15 11:27:16;;;;;;;33.67;13.52;;;;;;;3.58;100.00;100899.75;5036308;28;20044;-92
2022/01/15 11:29:44;;;;;;;35.58;12.63;;;;;;;3.51;100.00;100896.31;5035943;28;20058;-93
2022/01/15 11:32:13;;;;;;;30.13;11.55;;;;;;;3.53;100.00;100906.63;5036045;28;20075;-94
2022/01/15 11:34:39;;;;;;;31.80;11.85;;;;;;;3.40;100.00;100898.00;5035171;28;20439;-86
2022/01/15 11:37:19;;;;;;;26.20;11.75;;;;;;;3.43;100.00;100908.31;5049374;28;20033;-85